createdAt,value
2022-07-29T00:00:43.139Z,2.10
2022-07-29T00:01:43.181Z,2.20
2022-07-29T00:02:43.051Z,1.80
2022-07-29T00:03:43.148Z,2.00
2022-07-29T00:04:43.089Z,1.90
2022-07-29T00:05:42.985Z,2.50
2022-07-29T00:06:42.972Z,1.80
2022-07-29T00:07:43.000Z,2.50
2022-07-29T00:08:42.957Z,2.10
2022-07-29T00:09:51.620Z,1.80
2022-07-29T00:10:42.919Z,2.10
2022-07-29T00:11:42.926Z,2.40
2022-07-29T00:12:42.901Z,2.20
2022-07-29T00:13:45.384Z,2.20
2022-07-29T00:14:42.885Z,2.30
2022-07-29T00:15:42.888Z,2.10
2022-07-29T00:16:42.949Z,2.40
2022-07-29T00:17:42.833Z,2.50
2022-07-29T00:18:42.830Z,2.50
2022-07-29T00:19:45.528Z,2.00
2022-07-29T00:20:42.789Z,2.40
2022-07-29T00:21:42.808Z,2.80
2022-07-29T00:22:42.779Z,2.50
2022-07-29T00:23:42.757Z,2.30
2022-07-29T00:24:42.737Z,2.50
2022-07-29T00:25:42.731Z,1.70
2022-07-29T00:26:42.710Z,2.40
2022-07-29T00:27:42.704Z,1.90
2022-07-29T00:28:42.677Z,2.30
2022-07-29T00:29:42.660Z,2.10
2022-07-29T00:30:42.675Z,2.70
2022-07-29T00:31:42.699Z,2.60
2022-07-29T00:32:42.625Z,2.70
2022-07-29T00:33:42.615Z,2.30
2022-07-29T00:34:42.610Z,2.30
2022-07-29T00:35:42.578Z,2.30
2022-07-29T00:36:42.564Z,2.40
2022-07-29T00:37:42.613Z,2.60
2022-07-29T00:38:42.544Z,2.40
2022-07-29T00:39:42.528Z,2.50
2022-07-29T00:40:43.264Z,2.70
2022-07-29T00:41:42.551Z,3.00
2022-07-29T00:42:42.506Z,2.70
2022-07-29T00:43:42.514Z,2.20
2022-07-29T00:44:42.496Z,2.50
2022-07-29T00:45:42.513Z,2.50
2022-07-29T00:46:42.514Z,2.50
2022-07-29T00:47:42.422Z,2.30
2022-07-29T00:48:42.573Z,2.80
2022-07-29T00:49:42.422Z,2.60
2022-07-29T00:50:42.375Z,2.30
2022-07-29T00:51:42.478Z,2.20
2022-07-29T00:52:42.353Z,2.20
2022-07-29T00:53:42.371Z,2.60
2022-07-29T00:54:44.170Z,2.70
2022-07-29T00:55:42.318Z,2.60
2022-07-29T00:56:42.298Z,2.10
2022-07-29T00:57:42.309Z,2.40
2022-07-29T00:58:42.289Z,2.50
2022-07-29T00:59:42.272Z,2.40
2022-07-29T01:00:42.290Z,2.20
2022-07-29T01:01:42.340Z,2.60
2022-07-29T01:02:42.231Z,2.20
2022-07-29T01:03:42.224Z,2.30
2022-07-29T01:04:42.212Z,2.60
2022-07-29T01:05:50.020Z,2.30
2022-07-29T01:06:42.210Z,2.20
2022-07-29T01:07:42.186Z,2.30
2022-07-29T01:08:42.168Z,2.30
2022-07-29T01:09:46.076Z,2.20
2022-07-29T01:10:42.153Z,2.60
2022-07-29T01:11:42.122Z,2.50
2022-07-29T01:12:42.104Z,2.50
2022-07-29T01:13:42.171Z,2.50
2022-07-29T01:14:42.139Z,2.60
2022-07-29T01:15:49.110Z,2.60
2022-07-29T01:16:42.125Z,2.20
2022-07-29T01:17:52.454Z,2.60
2022-07-29T01:18:42.067Z,2.90
2022-07-29T01:19:42.165Z,2.50
2022-07-29T01:20:42.049Z,2.10
2022-07-29T01:21:42.347Z,2.30
2022-07-29T01:22:42.020Z,3.00
2022-07-29T01:23:42.141Z,3.10
2022-07-29T01:24:42.018Z,2.70
2022-07-29T01:25:42.047Z,2.60
2022-07-29T01:26:42.076Z,2.90
2022-07-29T01:27:41.968Z,2.50
2022-07-29T01:28:42.087Z,2.80
2022-07-29T01:29:41.951Z,2.70
2022-07-29T01:30:41.962Z,3.10
2022-07-29T01:31:55.196Z,2.90
2022-07-29T01:32:41.852Z,2.40
2022-07-29T01:33:41.826Z,2.70
2022-07-29T01:34:41.881Z,3.20
2022-07-29T01:35:41.803Z,2.70
2022-07-29T01:36:41.783Z,2.70
2022-07-29T01:37:41.799Z,2.50
2022-07-29T01:38:41.901Z,2.70
2022-07-29T01:39:41.758Z,3.50
2022-07-29T01:40:41.734Z,3.10
2022-07-29T01:41:41.747Z,3.00
2022-07-29T01:42:41.680Z,2.40
2022-07-29T01:43:41.717Z,2.50
2022-07-29T01:44:41.657Z,2.40
2022-07-29T01:45:41.763Z,2.50
2022-07-29T01:46:41.654Z,3.10
2022-07-29T01:47:41.674Z,2.50
2022-07-29T01:48:41.719Z,2.50
2022-07-29T01:49:41.661Z,2.40
2022-07-29T01:50:41.573Z,2.40
2022-07-29T01:51:41.645Z,2.80
2022-07-29T01:52:41.548Z,2.60
2022-07-29T01:53:41.539Z,2.80
2022-07-29T01:54:41.532Z,2.50
2022-07-29T01:55:41.548Z,2.50
2022-07-29T01:56:41.515Z,2.60
2022-07-29T01:57:41.520Z,2.80
2022-07-29T01:58:41.478Z,2.60
2022-07-29T01:59:41.481Z,3.30
2022-07-29T02:00:43.635Z,2.80
2022-07-29T02:01:41.574Z,2.80
2022-07-29T02:02:41.446Z,3.00
2022-07-29T02:03:41.456Z,2.70
2022-07-29T02:04:41.517Z,2.80
2022-07-29T02:05:41.493Z,2.50
2022-07-29T02:06:41.400Z,2.50
2022-07-29T02:07:41.372Z,2.90
2022-07-29T02:08:41.453Z,2.90
2022-07-29T02:09:41.359Z,2.90
2022-07-29T02:10:41.372Z,3.00
2022-07-29T02:11:41.365Z,3.00
2022-07-29T02:12:41.323Z,3.00
2022-07-29T02:13:41.293Z,2.80
2022-07-29T02:14:41.271Z,2.60
2022-07-29T02:15:41.285Z,3.10
2022-07-29T02:16:41.242Z,3.00
2022-07-29T02:17:41.234Z,2.90
2022-07-29T02:18:41.214Z,2.90
2022-07-29T02:19:41.198Z,2.80
2022-07-29T02:20:41.240Z,2.60
2022-07-29T02:21:41.167Z,3.10
2022-07-29T02:22:41.159Z,2.70
2022-07-29T02:23:50.991Z,2.80
2022-07-29T02:24:41.129Z,2.90
2022-07-29T02:25:41.139Z,3.20
2022-07-29T02:26:41.117Z,3.00
2022-07-29T02:27:41.097Z,2.70
2022-07-29T02:28:41.080Z,2.70
2022-07-29T02:29:41.067Z,3.20
2022-07-29T02:30:41.044Z,2.90
2022-07-29T02:31:41.119Z,2.90
2022-07-29T02:32:41.071Z,2.80
2022-07-29T02:33:41.043Z,2.70
2022-07-29T02:34:40.991Z,2.60
2022-07-29T02:35:40.994Z,3.30
2022-07-29T02:36:40.994Z,3.10
2022-07-29T02:37:40.956Z,3.00
2022-07-29T02:38:40.942Z,3.10
2022-07-29T02:39:40.953Z,3.00
2022-07-29T02:40:40.915Z,2.40
2022-07-29T02:41:40.903Z,2.70
2022-07-29T02:42:40.897Z,3.20
2022-07-29T02:43:40.891Z,2.90
2022-07-29T02:44:40.857Z,2.60
2022-07-29T02:45:40.881Z,3.10
2022-07-29T02:46:40.867Z,2.80
2022-07-29T02:47:41.881Z,3.30
2022-07-29T02:48:40.860Z,3.50
2022-07-29T02:49:40.816Z,2.70
2022-07-29T02:50:40.780Z,3.10
2022-07-29T02:51:41.394Z,2.80
2022-07-29T02:52:40.784Z,3.00
2022-07-29T02:53:40.793Z,3.00
2022-07-29T02:54:40.728Z,3.50
2022-07-29T02:55:40.742Z,3.10
2022-07-29T02:56:40.732Z,2.90
2022-07-29T02:57:54.631Z,3.20
2022-07-29T02:58:40.697Z,3.20
2022-07-29T02:59:40.661Z,2.80
2022-07-29T03:00:40.643Z,2.90
2022-07-29T03:01:40.719Z,2.90
2022-07-29T03:02:40.639Z,3.30
2022-07-29T03:03:40.612Z,2.80
2022-07-29T03:04:40.618Z,2.70
2022-07-29T03:05:40.616Z,2.90
2022-07-29T03:06:40.597Z,2.80
2022-07-29T03:07:40.557Z,3.10
2022-07-29T03:08:40.566Z,2.80
2022-07-29T03:09:40.547Z,2.80
2022-07-29T03:10:40.514Z,3.20
2022-07-29T03:11:46.146Z,2.70
2022-07-29T03:12:40.520Z,3.00
2022-07-29T03:13:40.479Z,2.60
2022-07-29T03:14:40.476Z,2.50
2022-07-29T03:15:40.517Z,2.50
2022-07-29T03:16:41.375Z,3.00
2022-07-29T03:17:40.459Z,3.00
2022-07-29T03:18:40.409Z,2.80
2022-07-29T03:19:40.419Z,2.70
2022-07-29T03:20:40.389Z,3.30
2022-07-29T03:21:40.371Z,2.90
2022-07-29T03:22:40.384Z,3.10
2022-07-29T03:23:40.343Z,2.50
2022-07-29T03:24:40.368Z,2.90
2022-07-29T03:25:40.327Z,2.80
2022-07-29T03:26:40.300Z,2.80
2022-07-29T03:27:40.290Z,3.30
2022-07-29T03:28:40.276Z,2.90
2022-07-29T03:29:40.282Z,2.90
2022-07-29T03:30:40.285Z,3.30
2022-07-29T03:31:40.282Z,2.80
2022-07-29T03:32:40.216Z,3.10
2022-07-29T03:33:40.210Z,2.90
2022-07-29T03:34:40.196Z,3.10
2022-07-29T03:35:40.216Z,2.80
2022-07-29T03:36:40.181Z,3.00
2022-07-29T03:37:40.178Z,3.20
2022-07-29T03:38:40.176Z,2.60
2022-07-29T03:39:40.135Z,3.10
2022-07-29T03:40:40.127Z,2.90
2022-07-29T03:41:40.187Z,3.20
2022-07-29T03:42:40.102Z,2.70
2022-07-29T03:43:48.962Z,3.10
2022-07-29T03:44:40.096Z,2.90
2022-07-29T03:45:40.055Z,2.90
2022-07-29T03:46:40.118Z,3.20
2022-07-29T03:47:50.082Z,3.00
2022-07-29T03:48:40.028Z,3.10
2022-07-29T03:49:40.018Z,3.30
2022-07-29T03:50:39.979Z,3.00
2022-07-29T03:51:40.009Z,2.60
2022-07-29T03:52:39.974Z,2.30
2022-07-29T03:53:39.966Z,2.90
2022-07-29T03:54:39.949Z,3.30
2022-07-29T03:55:39.945Z,2.90
2022-07-29T03:56:39.943Z,2.50
2022-07-29T03:57:39.914Z,3.10
2022-07-29T03:58:39.874Z,3.10
2022-07-29T03:59:39.866Z,3.30
2022-07-29T04:00:39.878Z,3.00
2022-07-29T04:01:39.942Z,3.10
2022-07-29T04:02:39.842Z,2.90
2022-07-29T04:03:39.897Z,3.20
2022-07-29T04:04:39.813Z,3.20
2022-07-29T04:05:39.807Z,3.00
2022-07-29T04:06:39.787Z,2.60
2022-07-29T04:07:39.778Z,3.00
2022-07-29T04:08:39.928Z,2.80
2022-07-29T04:09:39.754Z,3.10
2022-07-29T04:10:39.739Z,2.60
2022-07-29T04:12:03.369Z,2.80
2022-07-29T04:12:39.699Z,2.40
2022-07-29T04:13:39.678Z,2.80
2022-07-29T04:14:39.681Z,3.00
2022-07-29T04:15:39.666Z,2.90
2022-07-29T04:16:39.655Z,2.80
2022-07-29T04:17:39.644Z,3.00
2022-07-29T04:18:39.641Z,2.60
2022-07-29T04:19:39.594Z,2.50
2022-07-29T04:20:39.590Z,3.20
2022-07-29T04:21:39.586Z,2.90
2022-07-29T04:22:39.565Z,2.40
2022-07-29T04:23:47.549Z,2.60
2022-07-29T04:24:42.866Z,3.20
2022-07-29T04:25:39.547Z,3.00
2022-07-29T04:26:39.510Z,2.80
2022-07-29T04:27:39.513Z,2.50
2022-07-29T04:28:39.482Z,3.00
2022-07-29T04:29:56.780Z,3.10
2022-07-29T04:30:39.483Z,2.90
2022-07-29T04:31:39.507Z,3.20
2022-07-29T04:32:39.456Z,2.80
2022-07-29T04:33:39.416Z,2.90
2022-07-29T04:34:39.432Z,3.00
2022-07-29T04:35:45.814Z,3.00
2022-07-29T04:36:39.788Z,2.40
2022-07-29T04:37:39.361Z,2.80
2022-07-29T04:38:39.381Z,2.50
2022-07-29T04:39:39.365Z,2.70
2022-07-29T04:40:39.326Z,3.30
2022-07-29T04:41:39.326Z,2.50
2022-07-29T04:42:46.536Z,3.20
2022-07-29T04:43:39.313Z,2.80
2022-07-29T04:44:39.692Z,2.30
2022-07-29T04:45:39.275Z,3.10
2022-07-29T04:46:39.297Z,2.50
2022-07-29T04:47:39.274Z,2.60
2022-07-29T04:48:39.312Z,2.70
2022-07-29T04:49:39.221Z,2.60
2022-07-29T04:50:39.204Z,2.50
2022-07-29T04:51:39.183Z,2.90
2022-07-29T04:52:39.187Z,2.50
2022-07-29T04:53:39.190Z,2.30
2022-07-29T04:54:39.146Z,3.10
2022-07-29T04:55:39.255Z,2.50
2022-07-29T04:56:39.124Z,2.70
2022-07-29T04:57:39.128Z,3.30
2022-07-29T04:58:39.115Z,2.90
2022-07-29T04:59:39.093Z,3.10
2022-07-29T05:00:39.068Z,3.10
2022-07-29T05:01:39.119Z,2.60
2022-07-29T05:02:39.108Z,2.90
2022-07-29T05:03:39.032Z,2.80
2022-07-29T05:04:39.040Z,2.90
2022-07-29T05:05:39.011Z,2.70
2022-07-29T05:06:38.992Z,2.60
2022-07-29T05:07:38.975Z,2.90
2022-07-29T05:08:38.975Z,3.40
2022-07-29T05:09:38.946Z,2.20
2022-07-29T05:10:38.943Z,2.80
2022-07-29T05:11:38.918Z,2.40
2022-07-29T05:12:38.947Z,2.90
2022-07-29T05:13:45.060Z,2.30
2022-07-29T05:14:38.890Z,2.60
2022-07-29T05:15:38.889Z,2.60
2022-07-29T05:16:38.878Z,2.40
2022-07-29T05:17:38.877Z,2.50
2022-07-29T05:18:38.832Z,2.40
2022-07-29T05:19:39.578Z,2.60
2022-07-29T05:20:38.819Z,2.70
2022-07-29T05:21:38.818Z,2.90
2022-07-29T05:22:38.798Z,2.50
2022-07-29T05:23:38.765Z,2.60
2022-07-29T05:24:38.766Z,2.50
2022-07-29T05:25:43.607Z,2.50
2022-07-29T05:26:38.758Z,2.80
2022-07-29T05:27:38.730Z,2.60
2022-07-29T05:28:38.719Z,2.60
2022-07-29T05:29:44.943Z,2.60
2022-07-29T05:30:38.719Z,2.40
2022-07-29T05:31:38.694Z,2.40
2022-07-29T05:32:38.650Z,1.90
2022-07-29T05:33:38.636Z,2.50
2022-07-29T05:34:38.635Z,2.10
2022-07-29T05:35:38.619Z,2.20
2022-07-29T05:36:38.614Z,2.30
2022-07-29T05:37:38.577Z,2.20
2022-07-29T05:38:38.582Z,2.10
2022-07-29T05:39:48.467Z,2.10
2022-07-29T05:40:38.547Z,2.30
2022-07-29T05:41:38.565Z,2.50
2022-07-29T05:42:38.534Z,2.70
2022-07-29T05:43:38.512Z,2.20
2022-07-29T05:44:38.490Z,2.20
2022-07-29T05:45:49.947Z,2.00
2022-07-29T05:46:38.566Z,2.20
2022-07-29T05:47:38.451Z,2.30
2022-07-29T05:48:38.491Z,2.00
2022-07-29T05:49:38.433Z,2.10
2022-07-29T05:50:38.473Z,1.90
2022-07-29T05:51:38.562Z,2.30
2022-07-29T05:52:38.397Z,2.20
2022-07-29T05:53:38.397Z,2.10
2022-07-29T05:54:38.409Z,2.30
2022-07-29T05:55:38.329Z,2.40
2022-07-29T05:56:38.321Z,2.40
2022-07-29T05:57:38.335Z,2.20
2022-07-29T05:58:38.316Z,2.20
2022-07-29T05:59:38.307Z,2.30
2022-07-29T06:00:38.268Z,1.80
2022-07-29T06:01:38.327Z,2.20
2022-07-29T06:02:38.266Z,2.20
2022-07-29T06:03:38.262Z,2.40
2022-07-29T06:04:38.287Z,2.50
2022-07-29T06:05:38.202Z,1.80
2022-07-29T06:06:38.249Z,2.20
2022-07-29T06:07:38.172Z,1.80
2022-07-29T06:08:38.199Z,2.10
2022-07-29T06:09:38.146Z,2.30
2022-07-29T06:10:38.136Z,2.40
2022-07-29T06:11:38.147Z,2.20
2022-07-29T06:12:38.122Z,2.20
2022-07-29T06:13:38.108Z,1.80
2022-07-29T06:14:38.123Z,2.20
2022-07-29T06:15:38.092Z,2.00
2022-07-29T06:16:38.165Z,1.90
2022-07-29T06:17:38.050Z,1.80
2022-07-29T06:18:38.082Z,2.10
2022-07-29T06:19:38.084Z,2.30
2022-07-29T06:20:38.010Z,2.40
2022-07-29T06:21:42.079Z,2.20
2022-07-29T06:22:37.987Z,2.10
2022-07-29T06:23:37.973Z,1.90
2022-07-29T06:24:37.980Z,2.30
2022-07-29T06:25:37.983Z,2.70
2022-07-29T06:26:39.966Z,2.30
2022-07-29T06:27:38.001Z,2.00
2022-07-29T06:28:37.899Z,1.80
2022-07-29T06:29:37.895Z,2.60
2022-07-29T06:30:37.931Z,2.10
2022-07-29T06:31:37.899Z,2.10
2022-07-29T06:32:42.709Z,2.00
2022-07-29T06:33:37.925Z,2.00
2022-07-29T06:34:37.826Z,2.20
2022-07-29T06:35:41.953Z,2.10
2022-07-29T06:36:37.967Z,2.20
2022-07-29T06:37:37.812Z,2.20
2022-07-29T06:38:42.914Z,2.30
2022-07-29T06:39:37.769Z,3.30
2022-07-29T06:40:37.797Z,3.50
2022-07-29T06:41:37.752Z,1.80
2022-07-29T06:42:37.721Z,1.70
2022-07-29T06:43:50.604Z,1.90
2022-07-29T06:44:37.700Z,2.10
2022-07-29T06:45:37.696Z,1.90
2022-07-29T06:46:37.884Z,1.80
2022-07-29T06:47:37.653Z,1.90
2022-07-29T06:48:37.691Z,1.90
2022-07-29T06:49:37.618Z,2.10
2022-07-29T06:50:37.634Z,1.80
2022-07-29T06:51:37.613Z,1.80
2022-07-29T06:52:37.624Z,1.60
2022-07-29T06:53:37.570Z,1.90
2022-07-29T06:54:37.558Z,1.70
2022-07-29T06:55:37.567Z,1.50
2022-07-29T06:56:39.492Z,2.20
2022-07-29T06:57:37.616Z,1.70
2022-07-29T06:58:37.514Z,2.00
2022-07-29T06:59:37.506Z,1.50
2022-07-29T07:00:37.562Z,1.80
2022-07-29T07:01:37.586Z,1.80
2022-07-29T07:02:37.515Z,1.80
2022-07-29T07:03:37.506Z,1.70
2022-07-29T07:04:37.614Z,1.80
2022-07-29T07:05:37.451Z,2.00
2022-07-29T07:06:37.465Z,2.10
2022-07-29T07:07:37.479Z,1.90
2022-07-29T07:08:37.482Z,1.70
2022-07-29T07:09:40.362Z,2.10
2022-07-29T07:10:37.411Z,1.70
2022-07-29T07:11:37.377Z,1.80
2022-07-29T07:12:37.368Z,2.00
2022-07-29T07:13:37.312Z,2.10
2022-07-29T07:14:37.337Z,1.70
2022-07-29T07:15:38.854Z,1.40
2022-07-29T07:16:37.328Z,1.70
2022-07-29T07:17:37.257Z,1.40
2022-07-29T07:18:37.255Z,1.80
2022-07-29T07:19:37.266Z,1.80
2022-07-29T07:20:37.221Z,1.80
2022-07-29T07:21:37.220Z,1.80
2022-07-29T07:22:39.060Z,1.60
2022-07-29T07:23:37.227Z,1.60
2022-07-29T07:24:37.217Z,1.60
2022-07-29T07:25:37.163Z,1.90
2022-07-29T07:26:37.141Z,1.60
2022-07-29T07:27:37.120Z,1.90
2022-07-29T07:28:37.118Z,1.60
2022-07-29T07:29:37.113Z,1.80
2022-07-29T07:30:37.101Z,1.80
2022-07-29T07:31:37.213Z,1.70
2022-07-29T07:32:37.111Z,1.90
2022-07-29T07:33:37.070Z,1.60
2022-07-29T07:34:37.055Z,1.50
2022-07-29T07:35:37.022Z,1.70
2022-07-29T07:36:37.016Z,1.70
2022-07-29T07:37:36.997Z,2.30
2022-07-29T07:38:37.013Z,7.30
2022-07-29T07:39:36.995Z,2.60
2022-07-29T07:40:36.975Z,5.30
2022-07-29T07:41:36.942Z,2.10
2022-07-29T07:42:36.953Z,1.50
2022-07-29T07:43:36.951Z,2.00
2022-07-29T07:44:57.310Z,1.40
2022-07-29T07:45:36.963Z,2.00
2022-07-29T07:46:37.015Z,1.70
2022-07-29T07:47:36.893Z,1.60
2022-07-29T07:48:36.897Z,1.60
2022-07-29T07:49:36.863Z,1.90
2022-07-29T07:50:36.867Z,1.70
2022-07-29T07:51:36.815Z,1.60
2022-07-29T07:52:36.805Z,1.70
2022-07-29T07:53:36.800Z,1.10
2022-07-29T07:54:36.783Z,1.50
2022-07-29T07:56:00.448Z,1.50
2022-07-29T07:56:36.756Z,1.80
2022-07-29T07:57:36.745Z,2.00
2022-07-29T07:58:36.732Z,1.40
2022-07-29T07:59:36.729Z,1.30
2022-07-29T08:00:36.739Z,1.40
2022-07-29T08:01:47.889Z,1.70
2022-07-29T08:02:36.735Z,1.50
2022-07-29T08:03:36.680Z,1.50
2022-07-29T08:04:36.675Z,1.60
2022-07-29T08:05:36.643Z,1.40
2022-07-29T08:06:36.649Z,1.30
2022-07-29T08:07:36.602Z,3.60
2022-07-29T08:08:36.645Z,4.70
2022-07-29T08:09:36.605Z,9.60
2022-07-29T08:10:36.594Z,2.00
2022-07-29T08:11:37.747Z,1.40
2022-07-29T08:12:36.563Z,1.20
2022-07-29T08:13:36.542Z,1.90
2022-07-29T08:14:36.554Z,1.20
2022-07-29T08:15:36.502Z,1.30
2022-07-29T08:16:36.538Z,1.50
2022-07-29T08:17:36.495Z,1.40
2022-07-29T08:18:36.465Z,1.70
2022-07-29T08:19:36.454Z,1.20
2022-07-29T08:20:36.442Z,1.40
2022-07-29T08:21:36.598Z,1.30
2022-07-29T08:22:36.432Z,1.60
2022-07-29T08:23:46.494Z,1.20
2022-07-29T08:24:36.397Z,1.20
2022-07-29T08:25:38.579Z,1.60
2022-07-29T08:26:36.364Z,1.50
2022-07-29T08:27:44.352Z,1.20
2022-07-29T08:28:36.358Z,1.60
2022-07-29T08:29:36.336Z,1.10
2022-07-29T08:30:36.317Z,1.30
2022-07-29T08:31:36.416Z,1.30
2022-07-29T08:32:53.258Z,1.50
2022-07-29T08:33:36.310Z,1.50
2022-07-29T08:34:36.255Z,1.80
2022-07-29T08:35:36.510Z,1.50
2022-07-29T08:36:36.252Z,1.50
2022-07-29T08:37:36.243Z,1.40
2022-07-29T08:38:36.240Z,1.10
2022-07-29T08:39:36.265Z,1.20
2022-07-29T08:40:36.175Z,1.60
2022-07-29T08:41:36.176Z,1.30
2022-07-29T08:42:36.169Z,1.20
2022-07-29T08:43:36.153Z,1.10
2022-07-29T08:44:36.140Z,2.30
2022-07-29T08:45:36.147Z,1.40
2022-07-29T08:46:36.116Z,1.90
2022-07-29T08:47:36.118Z,1.40
2022-07-29T08:48:36.078Z,1.40
2022-07-29T08:49:36.090Z,1.40
2022-07-29T08:50:36.065Z,1.50
2022-07-29T08:51:36.060Z,1.30
2022-07-29T08:52:36.049Z,1.50
2022-07-29T08:53:36.016Z,1.60
2022-07-29T08:54:36.011Z,1.30
2022-07-29T08:55:36.024Z,1.30
2022-07-29T08:56:35.979Z,1.30
2022-07-29T08:57:37.260Z,1.80
2022-07-29T08:58:37.138Z,1.20
2022-07-29T08:59:35.964Z,1.30
2022-07-29T09:00:35.976Z,1.10
2022-07-29T09:01:45.142Z,1.20
2022-07-29T09:02:35.924Z,1.50
2022-07-29T09:03:36.017Z,1.40
2022-07-29T09:04:35.893Z,1.30
2022-07-29T09:05:40.603Z,1.30
2022-07-29T09:06:35.900Z,1.20
2022-07-29T09:07:35.835Z,1.30
2022-07-29T09:08:35.820Z,1.30
2022-07-29T09:09:35.828Z,1.50
2022-07-29T09:10:35.811Z,1.20
2022-07-29T09:11:35.789Z,1.30
2022-07-29T09:12:38.053Z,1.20
2022-07-29T09:13:35.800Z,1.20
2022-07-29T09:14:35.745Z,1.60
2022-07-29T09:15:35.736Z,1.30
2022-07-29T09:16:52.244Z,1.30
2022-07-29T09:17:35.775Z,1.30
2022-07-29T09:18:35.706Z,1.10
2022-07-29T09:19:35.707Z,1.60
2022-07-29T09:20:35.696Z,1.30
2022-07-29T09:21:35.716Z,1.30
2022-07-29T09:22:40.077Z,1.40
2022-07-29T09:23:35.680Z,1.20
2022-07-29T09:24:35.621Z,1.20
2022-07-29T09:25:35.633Z,1.40
2022-07-29T09:26:35.617Z,1.40
2022-07-29T09:27:35.626Z,1.00
2022-07-29T09:28:35.594Z,1.20
2022-07-29T09:29:36.371Z,2.00
2022-07-29T09:30:35.554Z,3.20
2022-07-29T09:31:35.655Z,2.30
2022-07-29T09:32:35.520Z,1.30
2022-07-29T09:33:35.566Z,1.20
2022-07-29T09:34:35.516Z,1.50
2022-07-29T09:35:35.496Z,1.30
2022-07-29T09:36:35.477Z,1.00
2022-07-29T09:37:35.491Z,1.30
2022-07-29T09:38:35.469Z,1.40
2022-07-29T09:39:35.483Z,1.10
2022-07-29T09:40:35.444Z,1.30
2022-07-29T09:41:35.421Z,1.50
2022-07-29T09:42:35.424Z,1.90
2022-07-29T09:43:35.414Z,1.10
2022-07-29T09:44:35.389Z,1.30
2022-07-29T09:45:35.505Z,1.20
2022-07-29T09:46:35.439Z,1.20
2022-07-29T09:47:35.396Z,1.10
2022-07-29T09:48:35.340Z,1.20
2022-07-29T09:49:35.336Z,1.70
2022-07-29T09:50:35.323Z,1.50
2022-07-29T09:51:38.514Z,1.10
2022-07-29T09:52:35.323Z,1.10
2022-07-29T09:53:35.318Z,1.20
2022-07-29T09:54:35.289Z,1.20
2022-07-29T09:55:35.263Z,1.20
2022-07-29T09:56:35.396Z,1.50
2022-07-29T09:57:35.432Z,1.50
2022-07-29T09:58:35.299Z,1.30
2022-07-29T09:59:35.374Z,1.30
2022-07-29T10:00:35.471Z,1.30
2022-07-29T10:01:35.251Z,1.40
2022-07-29T10:02:35.469Z,1.30
2022-07-29T10:03:35.217Z,1.30
2022-07-29T10:04:35.224Z,1.20
2022-07-29T10:05:36.101Z,1.70
2022-07-29T10:06:35.256Z,0.90
2022-07-29T10:07:35.236Z,1.40
2022-07-29T10:08:35.139Z,1.10
2022-07-29T10:09:35.138Z,1.50
2022-07-29T10:10:35.086Z,1.10
2022-07-29T10:11:48.172Z,1.10
2022-07-29T10:12:35.079Z,1.40
2022-07-29T10:13:35.279Z,1.40
2022-07-29T10:14:35.123Z,1.20
2022-07-29T10:15:35.191Z,1.30
2022-07-29T10:16:35.248Z,1.20
2022-07-29T10:17:35.430Z,1.20
2022-07-29T10:18:35.134Z,1.20
2022-07-29T10:19:34.980Z,1.30
2022-07-29T10:20:35.030Z,1.40
2022-07-29T10:21:36.627Z,1.10
2022-07-29T10:22:52.343Z,1.10
2022-07-29T10:23:46.094Z,1.40
2022-07-29T10:24:35.043Z,1.10
2022-07-29T10:25:34.966Z,1.30
2022-07-29T10:26:35.057Z,1.40
2022-07-29T10:27:34.980Z,1.20
2022-07-29T10:28:34.914Z,1.20
2022-07-29T10:29:34.880Z,1.50
2022-07-29T10:30:34.866Z,1.00
2022-07-29T10:31:34.908Z,1.30
2022-07-29T10:32:34.886Z,1.20
2022-07-29T10:33:34.833Z,6.40
2022-07-29T10:34:34.895Z,1.30
2022-07-29T10:35:34.857Z,1.40
2022-07-29T10:36:34.974Z,1.30
2022-07-29T10:37:35.345Z,1.40
2022-07-29T10:38:34.758Z,1.50
2022-07-29T10:39:44.380Z,3.30
2022-07-29T10:40:34.741Z,1.90
2022-07-29T10:41:36.327Z,3.40
2022-07-29T10:42:34.893Z,1.50
2022-07-29T10:43:34.689Z,1.30
2022-07-29T10:44:34.667Z,1.90
2022-07-29T10:45:34.687Z,1.60
2022-07-29T10:46:34.726Z,1.60
2022-07-29T10:47:35.466Z,1.50
2022-07-29T10:48:34.624Z,1.20
2022-07-29T10:49:34.641Z,1.60
2022-07-29T10:50:34.610Z,1.40
2022-07-29T10:51:34.587Z,1.40
2022-07-29T10:52:34.598Z,1.20
2022-07-29T10:53:34.588Z,1.20
2022-07-29T10:54:34.553Z,1.40
2022-07-29T10:55:34.548Z,1.20
2022-07-29T10:56:34.548Z,1.20
2022-07-29T10:57:53.510Z,1.50
2022-07-29T10:58:34.519Z,1.50
2022-07-29T10:59:36.426Z,1.50
2022-07-29T11:00:34.509Z,1.40
2022-07-29T11:01:37.725Z,1.30
2022-07-29T11:02:41.989Z,1.50
2022-07-29T11:03:34.509Z,1.30
2022-07-29T11:04:34.461Z,1.10
2022-07-29T11:05:39.971Z,1.50
2022-07-29T11:06:34.424Z,1.50
2022-07-29T11:07:45.993Z,1.50
2022-07-29T11:08:34.432Z,1.70
2022-07-29T11:09:34.979Z,1.30
2022-07-29T11:10:34.405Z,1.30
2022-07-29T11:11:34.971Z,1.20
2022-07-29T11:12:34.402Z,1.20
2022-07-29T11:13:38.393Z,1.20
2022-07-29T11:14:34.529Z,1.30
2022-07-29T11:15:34.569Z,1.50
2022-07-29T11:16:34.334Z,1.30
2022-07-29T11:17:47.088Z,1.90
2022-07-29T11:18:34.352Z,1.60
2022-07-29T11:19:34.384Z,1.30
2022-07-29T11:20:34.327Z,1.20
2022-07-29T11:21:48.845Z,1.50
2022-07-29T11:22:34.605Z,1.60
2022-07-29T11:23:34.743Z,1.80
2022-07-29T11:24:34.861Z,1.30
2022-07-29T11:25:42.867Z,1.90
2022-07-29T11:26:34.274Z,1.70
2022-07-29T11:27:34.239Z,1.40
2022-07-29T11:28:34.241Z,1.20
2022-07-29T11:29:34.219Z,1.70
2022-07-29T11:30:34.185Z,1.50
2022-07-29T11:31:34.322Z,1.30
2022-07-29T11:32:34.157Z,1.50
2022-07-29T11:33:54.316Z,1.50
2022-07-29T11:34:34.879Z,1.90
2022-07-29T11:35:37.976Z,1.70
2022-07-29T11:36:34.110Z,1.60
2022-07-29T11:37:34.109Z,1.50
2022-07-29T11:38:34.115Z,1.50
2022-07-29T11:39:36.738Z,1.40
2022-07-29T11:40:34.109Z,1.70
2022-07-29T11:41:34.081Z,1.80
2022-07-29T11:42:34.448Z,1.70
2022-07-29T11:43:34.059Z,1.80
2022-07-29T11:44:34.070Z,1.70
2022-07-29T11:45:43.862Z,1.50
2022-07-29T11:46:34.022Z,1.40
2022-07-29T11:47:38.229Z,1.60
2022-07-29T11:48:34.840Z,1.80
2022-07-29T11:49:34.125Z,1.30
2022-07-29T11:50:33.989Z,1.50
2022-07-29T11:51:33.988Z,1.50
2022-07-29T11:52:33.978Z,1.60
2022-07-29T11:53:33.978Z,1.60
2022-07-29T11:54:33.937Z,1.60
2022-07-29T11:55:34.012Z,1.60
2022-07-29T11:56:33.911Z,1.50
2022-07-29T11:57:37.226Z,1.50
2022-07-29T11:58:33.927Z,1.60
2022-07-29T11:59:35.189Z,1.40
2022-07-29T12:00:33.859Z,1.60
2022-07-29T12:01:33.964Z,1.50
2022-07-29T12:02:37.490Z,1.40
2022-07-29T12:03:35.709Z,1.50
2022-07-29T12:04:33.828Z,1.70
2022-07-29T12:05:36.928Z,1.60
2022-07-29T12:06:33.825Z,1.90
2022-07-29T12:07:35.169Z,1.60
2022-07-29T12:08:33.853Z,1.60
2022-07-29T12:09:40.153Z,1.60
2022-07-29T12:10:33.842Z,1.90
2022-07-29T12:11:33.787Z,1.70
2022-07-29T12:12:33.782Z,1.70
2022-07-29T12:13:37.507Z,1.70
2022-07-29T12:14:33.721Z,2.10
2022-07-29T12:15:46.220Z,2.10
2022-07-29T12:16:33.823Z,1.80
2022-07-29T12:17:33.742Z,1.70
2022-07-29T12:18:33.732Z,1.50
2022-07-29T12:19:33.691Z,1.90
2022-07-29T12:20:33.657Z,1.60
2022-07-29T12:21:33.666Z,1.80
2022-07-29T12:22:33.664Z,1.40
2022-07-29T12:23:34.387Z,1.70
2022-07-29T12:24:33.947Z,1.60
2022-07-29T12:25:34.731Z,1.40
2022-07-29T12:26:34.202Z,1.60
2022-07-29T12:27:33.725Z,1.70
2022-07-29T12:28:33.825Z,1.50
2022-07-29T12:29:35.765Z,2.20
2022-07-29T12:30:33.650Z,1.60
2022-07-29T12:31:43.021Z,1.90
2022-07-29T12:32:33.910Z,1.70
2022-07-29T12:33:33.740Z,1.70
2022-07-29T12:34:33.581Z,1.90
2022-07-29T12:35:33.837Z,1.20
2022-07-29T12:36:34.387Z,1.60
2022-07-29T12:37:41.287Z,1.60
2022-07-29T12:38:34.051Z,1.40
2022-07-29T12:39:33.492Z,1.40
2022-07-29T12:40:33.773Z,1.70
2022-07-29T12:41:33.484Z,1.40
2022-07-29T12:42:34.325Z,1.50
2022-07-29T12:43:33.458Z,1.90
2022-07-29T12:44:33.503Z,1.70
2022-07-29T12:45:33.573Z,1.40
2022-07-29T12:46:33.646Z,1.80
2022-07-29T12:47:33.383Z,1.50
2022-07-29T12:48:33.504Z,1.70
2022-07-29T12:49:37.919Z,1.50
2022-07-29T12:50:33.798Z,1.60
2022-07-29T12:51:33.723Z,2.00
2022-07-29T12:52:33.578Z,1.60
2022-07-29T12:53:33.465Z,1.60
2022-07-29T12:54:33.282Z,1.20
2022-07-29T12:55:34.252Z,1.50
2022-07-29T12:56:42.696Z,1.80
2022-07-29T12:57:33.466Z,1.60
2022-07-29T12:58:33.239Z,1.90
2022-07-29T12:59:33.224Z,2.30
2022-07-29T13:00:33.734Z,1.60
2022-07-29T13:01:33.346Z,1.70
2022-07-29T13:02:33.255Z,1.70
2022-07-29T13:03:35.959Z,2.00
2022-07-29T13:04:33.236Z,1.90
2022-07-29T13:05:33.268Z,2.20
2022-07-29T13:06:33.197Z,2.40
2022-07-29T13:07:54.244Z,2.50
2022-07-29T13:08:33.243Z,1.70
2022-07-29T13:09:33.115Z,2.10
2022-07-29T13:10:33.091Z,1.80
2022-07-29T13:11:34.092Z,1.70
2022-07-29T13:12:33.096Z,1.80
2022-07-29T13:13:33.047Z,1.60
2022-07-29T13:14:33.090Z,1.40
2022-07-29T13:15:33.044Z,1.90
2022-07-29T13:16:33.075Z,1.90
2022-07-29T13:17:33.070Z,2.30
2022-07-29T13:18:33.087Z,1.80